Time;durP1;ratioP1;P1;durP2;ratioP2;P2;SDS_P1;SDS_P2;PMS_P1;PMS_P2;Temp;Humidity;BMP_temperature;BMP_pressure;BME280_temperature;BME280_humidity;BME280_pressure;Samples;Min_cycle;Max_cycle;Signal;HPM_P1;HPM_P2
2022/08/13 00:00:59;;;;;;;0.00;0.00;;;20.40;99.90;;;;;;5065795;28;20246;-78
2022/08/13 00:03:28;;;;;;;0.00;0.00;;;20.50;99.90;;;;;;5067064;28;20199;-77
2022/08/13 00:05:55;;;;;;;0.00;0.00;;;20.50;99.90;;;;;;5067120;28;20349;-77
2022/08/13 00:08:25;;;;;;;0.00;0.00;;;20.50;99.90;;;;;;5066467;28;20751;-78
2022/08/13 00:10:53;;;;;;;0.00;0.00;;;20.30;99.90;;;;;;5057410;28;20222;-78
2022/08/13 00:13:20;;;;;;;0.00;0.00;;;20.20;99.90;;;;;;5078557;28;20724;-77
2022/08/13 00:15:48;;;;;;;0.00;0.00;;;20.20;99.90;;;;;;5064079;28;20684;-77
2022/08/13 00:18:20;;;;;;;0.00;0.00;;;20.20;99.90;;;;;;5066432;28;20210;-77
2022/08/13 00:20:51;;;;;;;0.00;0.00;;;;;;;;;;5066898;28;20226;-77
2022/08/13 00:23:19;;;;;;;0.00;0.00;;;;;;;;;;5066562;28;20205;-77
2022/08/13 00:25:49;;;;;;;0.00;0.00;;;21.00;99.90;;;;;;5066117;28;20199;-77
2022/08/13 00:28:18;;;;;;;0.00;0.00;;;20.10;99.90;;;;;;5063804;28;20209;-78
2022/08/13 00:30:48;;;;;;;0.00;0.00;;;20.00;99.90;;;;;;5065630;28;20226;-77
2022/08/13 00:33:18;;;;;;;0.00;0.00;;;;;;;;;;5063541;28;20246;-77
2022/08/13 00:35:47;;;;;;;0.00;0.00;;;19.90;99.90;;;;;;5079995;28;20207;-77
2022/08/13 00:38:17;;;;;;;0.00;0.00;;;19.80;99.90;;;;;;5064168;28;20230;-78
2022/08/13 00:40:46;;;;;;;0.00;0.00;;;19.80;99.90;;;;;;5066052;28;20731;-77
2022/08/13 00:43:14;;;;;;;0.00;0.00;;;19.70;99.90;;;;;;5065257;28;20205;-78
2022/08/13 00:45:42;;;;;;;0.00;0.00;;;19.70;99.90;;;;;;5065716;28;20203;-77
2022/08/13 00:50:58;;;;;;;0.00;0.00;;;19.80;99.90;;;;;;5066166;28;20244;-77
2022/08/13 00:53:25;;;;;;;0.00;0.00;;;19.70;99.90;;;;;;5068040;28;20337;-77
2022/08/13 00:55:55;;;;;;;0.00;0.00;;;19.60;99.90;;;;;;5066048;28;20203;-77
2022/08/13 00:58:24;;;;;;;0.00;0.00;;;19.60;99.90;;;;;;5066782;28;20202;-76
2022/08/13 01:00:52;;;;;;;0.00;0.00;;;19.50;99.90;;;;;;5071870;28;20215;-77
2022/08/13 01:03:21;;;;;;;0.00;0.00;;;19.70;99.90;;;;;;5065993;28;20233;-77
2022/08/13 01:05:49;;;;;;;0.00;0.00;;;19.60;99.90;;;;;;5066466;28;20680;-77
2022/08/13 01:08:19;;;;;;;0.00;0.00;;;19.60;99.90;;;;;;5067490;28;20203;-77
2022/08/13 01:10:48;;;;;;;0.00;0.00;;;;;;;;;;5065934;28;20222;-77
2022/08/13 01:13:17;;;;;;;0.00;0.00;;;;;;;;;;5065996;28;20250;-77
2022/08/13 01:15:46;;;;;;;0.00;0.00;;;;;;;;;;5061081;28;20211;-77
2022/08/13 01:18:17;;;;;;;0.00;0.00;;;;;;;;;;5065835;28;20263;-76
2022/08/13 01:20:48;;;;;;;0.00;0.00;;;;;;;;;;5064620;28;20250;-76
2022/08/13 01:23:20;;;;;;;0.00;0.00;;;;;;;;;;5066592;28;20195;-77
2022/08/13 01:25:49;;;;;;;0.00;0.00;;;;;;;;;;5080743;28;20214;-77
2022/08/13 01:28:18;;;;;;;0.00;0.00;;;;;;;;;;5065400;28;20190;-77
2022/08/13 01:30:47;;;;;;;0.00;0.00;;;20.20;99.90;;;;;;5064167;28;20621;-77
2022/08/13 01:33:17;;;;;;;0.00;0.00;;;19.40;99.90;;;;;;5065359;28;20246;-76
2022/08/13 01:35:45;;;;;;;0.00;0.00;;;19.30;99.90;;;;;;5064914;28;20194;-76
2022/08/13 01:38:13;;;;;;;0.00;0.00;;;19.30;99.90;;;;;;5065703;28;20213;-76
2022/08/13 01:40:47;;;;;;;0.00;0.00;;;;;;;;;;5064458;28;20284;-76
2022/08/13 01:43:17;;;;;;;0.00;0.00;;;;;;;;;;5065308;28;20223;-77
2022/08/13 01:45:45;;;;;;;0.00;0.00;;;;;;;;;;5063997;28;20198;-76
2022/08/13 01:50:58;;;;;;;0.00;0.00;;;19.30;99.90;;;;;;5065566;28;20229;-76
2022/08/13 01:53:25;;;;;;;0.00;0.00;;;19.30;99.90;;;;;;5061580;28;20215;-76
2022/08/13 01:55:56;;;;;;;0.00;0.00;;;19.30;99.90;;;;;;5063524;28;20194;-76
2022/08/13 01:58:25;;;;;;;0.00;0.00;;;19.30;99.90;;;;;;5064944;28;20199;-76
2022/08/13 02:00:57;;;;;;;0.00;0.00;;;19.20;99.90;;;;;;5064327;28;20309;-76
2022/08/13 02:03:24;;;;;;;0.00;0.00;;;19.10;99.90;;;;;;5063041;28;20214;-76
2022/08/13 02:05:52;;;;;;;0.00;0.00;;;19.20;99.90;;;;;;5061905;28;20317;-76
2022/08/13 02:08:22;;;;;;;0.00;0.00;;;19.20;99.90;;;;;;5066587;28;20195;-76
2022/08/13 02:10:50;;;;;;;0.00;0.00;;;19.10;99.90;;;;;;5064500;28;20385;-76
2022/08/13 02:13:21;;;;;;;0.00;0.00;;;19.10;99.90;;;;;;5063804;28;20226;-76
2022/08/13 02:15:50;;;;;;;0.00;0.00;;;19.10;99.90;;;;;;5059976;28;20210;-77
2022/08/13 02:18:21;;;;;;;0.00;0.00;;;19.00;99.90;;;;;;5064600;28;20216;-76
2022/08/13 02:20:51;;;;;;;0.00;0.00;;;18.90;99.90;;;;;;5060749;28;20223;-76
2022/08/13 02:23:20;;;;;;;0.00;0.00;;;18.90;99.90;;;;;;5065491;28;20245;-77
2022/08/13 02:25:49;;;;;;;0.00;0.00;;;18.90;99.90;;;;;;5065132;28;20214;-76
2022/08/13 02:28:18;;;;;;;0.00;0.00;;;18.80;99.90;;;;;;5064334;28;20190;-75
2022/08/13 02:30:49;;;;;;;0.00;0.00;;;18.80;99.90;;;;;;5062463;28;20302;-76
2022/08/13 02:33:17;;;;;;;0.00;0.00;;;18.70;99.90;;;;;;5059157;28;20222;-76
2022/08/13 02:35:45;;;;;;;0.00;0.00;;;18.70;99.90;;;;;;5063180;28;20248;-76
2022/08/13 02:38:12;;;;;;;0.00;0.00;;;18.60;99.90;;;;;;5063208;28;20220;-76
2022/08/13 02:43:25;;;;;;;0.00;0.00;;;18.50;99.90;;;;;;5060968;28;20676;-76
2022/08/13 02:45:54;;;;;;;0.00;0.00;;;18.50;99.90;;;;;;5064365;28;20199;-76
2022/08/13 02:48:23;;;;;;;0.00;0.00;;;;;;;;;;5065672;28;20206;-77
2022/08/13 02:50:51;;;;;;;0.00;0.00;;;18.40;99.90;;;;;;5064820;28;20222;-77
2022/08/13 02:53:19;;;;;;;0.00;0.00;;;18.50;99.90;;;;;;5065999;28;20226;-78
2022/08/13 02:55:47;;;;;;;0.00;0.00;;;18.50;99.90;;;;;;5064459;28;20229;-77
2022/08/13 02:58:15;;;;;;;0.00;0.00;;;18.50;99.90;;;;;;5065545;28;20198;-77
2022/08/13 03:00:47;;;;;;;0.00;0.00;;;18.50;99.90;;;;;;5066533;28;20328;-76
2022/08/13 03:03:17;;;;;;;0.00;0.00;;;18.50;99.90;;;;;;5059950;28;20264;-77
2022/08/13 03:05:44;;;;;;;0.00;0.00;;;18.50;99.90;;;;;;5064702;28;20199;-77
2022/08/13 03:08:11;;;;;;;0.00;0.00;;;18.50;99.90;;;;;;5057277;28;20245;-77
2022/08/13 03:10:42;;;;;;;0.00;0.00;;;18.50;99.90;;;;;;5062325;28;20203;-77
2022/08/13 03:13:16;;;;;;;0.00;0.00;;;18.60;99.90;;;;;;5062275;28;20206;-77
2022/08/13 03:15:46;;;;;;;0.00;0.00;;;18.50;99.90;;;;;;5056529;28;20210;-77
2022/08/13 03:18:16;;;;;;;0.00;0.00;;;;;;;;;;5057473;28;20198;-77
2022/08/13 03:20:48;;;;;;;0.00;0.00;;;;;;;;;;5053562;28;20222;-75
2022/08/13 03:23:17;;;;;;;0.00;0.00;;;;;;;;;;5060617;28;20260;-76
2022/08/13 03:25:44;;;;;;;0.00;0.00;;;;;;;;;;5059991;28;20195;-77
2022/08/13 03:28:14;;;;;;;0.00;0.00;;;;;;;;;;5063566;28;20209;-77
2022/08/13 03:30:41;;;;;;;0.00;0.00;;;;;;;;;;5064355;28;20209;-76
2022/08/13 03:33:11;;;;;;;0.00;0.00;;;18.10;99.90;;;;;;5065430;28;20336;-77
2022/08/13 03:35:39;;;;;;;0.00;0.00;;;18.00;99.90;;;;;;5061169;28;20237;-77
2022/08/13 03:38:11;;;;;;;0.00;0.00;;;18.00;99.90;;;;;;5059346;28;20207;-76
2022/08/13 03:43:25;;;;;;;0.00;0.00;;;18.00;99.90;;;;;;5057346;28;20250;-77
2022/08/13 03:45:54;;;;;;;0.00;0.00;;;18.00;99.90;;;;;;5059336;28;20222;-77
2022/08/13 03:48:22;;;;;;;0.00;0.00;;;18.00;99.90;;;;;;5056233;28;20226;-77
2022/08/13 03:50:49;;;;;;;0.00;0.00;;;18.10;99.90;;;;;;5066656;28;20222;-76
2022/08/13 03:53:20;;;;;;;0.00;0.00;;;18.10;99.90;;;;;;5067798;28;20198;-77
2022/08/13 03:55:48;;;;;;;0.00;0.00;;;18.10;99.90;;;;;;5067536;28;20206;-76
2022/08/13 03:58:17;;;;;;;0.00;0.00;;;18.00;99.90;;;;;;5063981;28;20281;-77
2022/08/13 04:00:48;;;;;;;0.00;0.00;;;17.90;99.90;;;;;;5072684;28;20257;-76
2022/08/13 04:03:20;;;;;;;0.00;0.00;;;17.90;99.90;;;;;;5064297;28;20195;-77
2022/08/13 04:05:48;;;;;;;0.00;0.00;;;17.90;99.90;;;;;;5066998;28;20191;-77
2022/08/13 04:08:15;;;;;;;0.00;0.00;;;17.90;99.90;;;;;;5066330;28;20198;-77
2022/08/13 04:10:45;;;;;;;0.00;0.00;;;;;;;;;;5066814;28;20230;-77
2022/08/13 04:13:16;;;;;;;0.00;0.00;;;;;;;;;;5066135;28;20203;-78
2022/08/13 04:15:47;;;;;;;0.00;0.00;;;;;;;;;;5068549;28;20591;-77
2022/08/13 04:18:16;;;;;;;0.00;0.00;;;;;;;;;;5067347;28;20202;-79
2022/08/13 04:20:47;;;;;;;0.00;0.00;;;;;;;;;;5065305;28;20226;-77
2022/08/13 04:23:16;;;;;;;0.00;0.00;;;;;;;;;;5068703;28;20305;-77
2022/08/13 04:25:47;;;;;;;0.00;0.00;;;;;;;;;;5063994;28;20194;-77
2022/08/13 04:28:15;;;;;;;0.00;0.00;;;;;;;;;;5067093;28;20214;-76
2022/08/13 04:30:44;;;;;;;0.00;0.00;;;;;;;;;;5066316;28;20226;-77
2022/08/13 04:33:14;;;;;;;0.00;0.00;;;;;;;;;;5066549;28;20765;-77
2022/08/13 04:35:44;;;;;;;0.00;0.00;;;;;;;;;;5065799;28;20228;-77
2022/08/13 04:38:12;;;;;;;0.00;0.00;;;;;;;;;;5066579;28;20230;-77
2022/08/13 04:40:41;;;;;;;0.00;0.00;;;18.50;99.90;;;;;;5066144;28;20203;-78
2022/08/13 04:43:11;;;;;;;0.00;0.00;;;18.70;99.90;;;;;;5066741;28;20205;-77
2022/08/13 04:45:39;;;;;;;0.00;0.00;;;18.70;99.90;;;;;;5066095;28;20214;-77
2022/08/13 04:48:09;;;;;;;0.00;0.00;;;18.80;99.90;;;;;;5067637;28;20199;-77
2022/08/13 04:50:38;;;;;;;0.00;0.00;;;18.90;99.90;;;;;;5083443;28;20302;-76
2022/08/13 04:53:07;;;;;;;0.00;0.00;;;19.00;99.90;;;;;;5081917;28;20199;-77
2022/08/13 04:55:36;;;;;;;0.00;0.00;;;19.10;99.90;;;;;;5080682;28;20317;-76
2022/08/13 04:58:03;;;;;;;0.00;0.00;;;19.20;99.90;;;;;;5065174;28;20658;-77
2022/08/13 05:00:33;;;;;;;0.00;0.00;;;19.40;99.90;;;;;;5062273;28;20203;-77
2022/08/13 05:03:08;;;;;;;0.00;0.00;;;19.50;99.90;;;;;;5064488;28;20302;-77
2022/08/13 05:05:36;;;;;;;0.00;0.00;;;19.60;99.90;;;;;;5065818;28;20206;-78
2022/08/13 05:08:04;;;;;;;0.00;0.00;;;19.80;99.90;;;;;;5067478;28;20191;-77
2022/08/13 05:10:32;;;;;;;0.00;0.00;;;19.90;99.90;;;;;;5063877;28;20207;-77
2022/08/13 05:13:01;;;;;;;0.00;0.00;;;20.00;99.90;;;;;;5066190;28;20289;-78
2022/08/13 05:15:33;;;;;;;0.00;0.00;;;20.20;99.90;;;;;;5065540;28;20246;-78
2022/08/13 05:18:03;;;;;;;0.00;0.00;;;20.20;99.90;;;;;;5066085;28;20226;-77
2022/08/13 05:20:30;;;;;;;0.00;0.00;;;20.30;99.90;;;;;;5065072;28;20206;-77
2022/08/13 05:22:57;;;;;;;0.00;0.00;;;20.50;99.90;;;;;;5066250;28;20198;-77
2022/08/13 05:25:24;;;;;;;0.00;0.00;;;20.60;99.90;;;;;;5065972;28;20194;-76
2022/08/13 05:27:53;;;;;;;0.00;0.00;;;20.60;99.90;;;;;;5066709;28;20566;-77
2022/08/13 05:30:20;;;;;;;0.00;0.00;;;20.80;99.90;;;;;;5064760;28;20215;-76
2022/08/13 05:32:50;;;;;;;0.00;0.00;;;20.90;99.90;;;;;;5064878;28;20230;-78
2022/08/13 05:35:17;;;;;;;0.00;0.00;;;21.00;99.90;;;;;;5068832;28;20202;-76
2022/08/13 05:37:44;;;;;;;0.00;0.00;;;21.20;99.90;;;;;;5065982;28;20686;-78
2022/08/13 05:40:11;;;;;;;0.00;0.00;;;21.30;99.90;;;;;;5065788;28;20194;-77
2022/08/13 05:42:39;;;;;;;0.00;0.00;;;21.30;99.90;;;;;;5066245;28;20222;-77
2022/08/13 05:45:08;;;;;;;0.00;0.00;;;21.40;99.90;;;;;;5065560;28;20210;-78
2022/08/13 05:47:36;;;;;;;0.00;0.00;;;21.50;99.90;;;;;;5066920;28;20272;-78
2022/08/13 05:50:13;;;;;;;0.00;0.00;;;21.60;99.90;;;;;;5068402;28;20194;-77
2022/08/13 05:52:41;;;;;;;0.00;0.00;;;21.70;99.90;;;;;;5068895;28;20226;-79
2022/08/13 05:55:11;;;;;;;0.00;0.00;;;21.80;99.90;;;;;;5065916;28;20206;-78
2022/08/13 05:57:39;;;;;;;0.00;0.00;;;21.90;99.90;;;;;;5066689;28;20202;-78
2022/08/13 06:05:46;;;;;;;0.00;0.00;;;22.30;99.90;;;;;;5029031;28;20226;-78
2022/08/13 06:08:17;;;;;;;0.00;0.00;;;22.50;99.90;;;;;;5066057;28;20195;-79
2022/08/13 06:10:48;;;;;;;0.00;0.00;;;22.50;99.90;;;;;;5065934;28;20230;-78
2022/08/13 06:13:16;;;;;;;0.00;0.00;;;22.70;99.90;;;;;;5065999;28;20203;-78
2022/08/13 06:15:44;;;;;;;0.00;0.00;;;22.70;99.90;;;;;;5066691;28;20227;-78
2022/08/13 06:18:13;;;;;;;0.00;0.00;;;22.90;99.90;;;;;;5067773;28;20206;-79
2022/08/13 06:20:41;;;;;;;0.00;0.00;;;23.00;99.90;;;;;;5065032;28;20768;-78
2022/08/13 06:23:11;;;;;;;0.00;0.00;;;23.10;99.90;;;;;;5067327;28;20297;-77
2022/08/13 06:25:39;;;;;;;0.00;0.00;;;23.20;99.90;;;;;;5065941;28;20210;-76
2022/08/13 06:28:10;;;;;;;0.00;0.00;;;23.30;99.90;;;;;;5066081;28;20262;-78
2022/08/13 06:30:39;;;;;;;0.00;0.00;;;23.50;99.90;;;;;;5064795;28;20222;-76
2022/08/13 06:33:06;;;;;;;0.00;0.00;;;23.70;99.90;;;;;;5063415;28;20665;-78
2022/08/13 06:35:34;;;;;;;0.00;0.00;;;23.80;99.90;;;;;;5065547;28;20241;-78
2022/08/13 06:38:05;;;;;;;0.00;0.00;;;23.90;99.90;;;;;;5065997;28;20201;-79
2022/08/13 06:40:36;;;;;;;0.00;0.00;;;24.20;99.90;;;;;;5063896;28;20242;-78
2022/08/13 06:43:05;;;;;;;0.00;0.00;;;24.30;99.90;;;;;;5066164;28;20206;-78
2022/08/13 06:45:32;;;;;;;0.00;0.00;;;24.40;99.90;;;;;;5063886;28;20207;-78
2022/08/13 06:48:00;;;;;;;0.00;0.00;;;24.50;99.90;;;;;;5063817;28;20207;-78
2022/08/13 06:50:26;;;;;;;0.00;0.00;;;24.70;99.90;;;;;;5065226;28;20638;-78
2022/08/13 06:52:56;;;;;;;0.00;0.00;;;;;;;;;;5064224;28;20313;-78
2022/08/13 06:55:23;;;;;;;0.00;0.00;;;;;;;;;;5065073;28;20229;-78
2022/08/13 06:57:52;;;;;;;0.00;0.00;;;;;;;;;;5062300;28;20202;-79
2022/08/13 07:00:20;;;;;;;0.00;0.00;;;;;;;;;;5064421;28;20199;-79
2022/08/13 07:02:47;;;;;;;0.00;0.00;;;25.70;99.90;;;;;;5064578;28;20231;-79
2022/08/13 07:05:15;;;;;;;0.00;0.00;;;25.90;99.90;;;;;;5062157;28;20203;-79
2022/08/13 07:07:45;;;;;;;0.00;0.00;;;25.90;99.90;;;;;;5063405;28;20203;-79
2022/08/13 07:10:14;;;;;;;0.00;0.00;;;25.90;99.90;;;;;;5061006;28;20231;-79
2022/08/13 07:12:42;;;;;;;0.00;0.00;;;26.00;99.90;;;;;;5063125;28;20241;-78
2022/08/13 07:15:16;;;;;;;0.00;0.00;;;26.10;99.90;;;;;;5062667;28;20245;-79
2022/08/13 07:17:45;;;;;;;0.00;0.00;;;26.20;99.90;;;;;;5080523;28;20226;-80
2022/08/13 07:20:12;;;;;;;0.00;0.00;;;26.40;99.90;;;;;;5064662;28;20209;-78
2022/08/13 07:22:40;;;;;;;0.00;0.00;;;26.50;99.90;;;;;;5064962;28;20230;-78
2022/08/13 07:25:11;;;;;;;0.00;0.00;;;26.60;99.90;;;;;;5065130;28;20281;-78
2022/08/13 07:27:40;;;;;;;0.00;0.00;;;26.70;99.90;;;;;;5063844;28;20199;-80
2022/08/13 07:30:08;;;;;;;0.00;0.00;;;26.90;99.90;;;;;;5063011;28;20290;-78
2022/08/13 07:32:39;;;;;;;0.00;0.00;;;27.00;99.90;;;;;;5064848;28;20223;-79
2022/08/13 07:35:08;;;;;;;0.00;0.00;;;27.20;99.90;;;;;;5062571;28;20195;-78
2022/08/13 07:37:35;;;;;;;0.00;0.00;;;27.30;99.90;;;;;;5067841;28;20202;-78
2022/08/13 07:40:03;;;;;;;0.00;0.00;;;27.40;99.90;;;;;;5065017;28;20294;-78
2022/08/13 07:42:32;;;;;;;0.00;0.00;;;27.60;99.90;;;;;;5068258;28;20725;-78
2022/08/13 07:44:59;;;;;;;0.00;0.00;;;27.70;99.90;;;;;;5068428;28;20221;-79
2022/08/13 07:47:27;;;;;;;0.00;0.00;;;27.90;99.90;;;;;;5069427;28;20205;-79
2022/08/13 07:49:58;;;;;;;0.00;0.00;;;27.90;99.90;;;;;;5067438;28;20206;-77
2022/08/13 07:52:27;;;;;;;0.00;0.00;;;;;;;;;;5066876;28;20302;-78
2022/08/13 07:54:54;;;;;;;0.00;0.00;;;28.20;99.90;;;;;;5065838;28;20208;-78
2022/08/13 07:57:25;;;;;;;0.00;0.00;;;28.20;99.90;;;;;;5067642;28;20312;-78
2022/08/13 07:59:53;;;;;;;0.00;0.00;;;28.30;99.90;;;;;;5067912;28;20203;-77
2022/08/13 08:02:19;;;;;;;0.00;0.00;;;28.40;99.90;;;;;;5065838;28;20223;-78
2022/08/13 08:04:47;;;;;;;0.00;0.00;;;;;;;;;;5059620;28;20253;-77
2022/08/13 08:07:16;;;;;;;0.00;0.00;;;;;;;;;;5060869;28;20191;-77
2022/08/13 08:09:44;;;;;;;0.00;0.00;;;;;;;;;;5067015;28;20238;-76
2022/08/13 08:14:55;;;;;;;0.00;0.00;;;;;;;;;;5054565;28;20213;-77
2022/08/13 08:17:26;;;;;;;0.00;0.00;;;;;;;;;;5067149;28;20229;-78
2022/08/13 08:19:55;;;;;;;0.00;0.00;;;;;;;;;;5070420;28;20206;-82
2022/08/13 08:22:25;;;;;;;0.00;0.00;;;;;;;;;;5068320;28;20257;-80
2022/08/13 08:24:52;;;;;;;0.00;0.00;;;;;;;;;;5067473;28;20205;-81
2022/08/13 08:27:20;;;;;;;0.00;0.00;;;;;;;;;;5071955;28;20197;-81
2022/08/13 08:29:49;;;;;;;0.00;0.00;;;;;;;;;;5072321;28;20344;-83
2022/08/13 08:32:17;;;;;;;0.00;0.00;;;;;;;;;;5070705;28;20223;-80
2022/08/13 08:34:46;;;;;;;0.00;0.00;;;;;;;;;;5070784;28;20206;-80
2022/08/13 08:42:35;;;;;;;0.00;0.00;;;29.40;99.90;;;;;;5068299;28;20641;-80
2022/08/13 08:42:55;;;;;;;0.00;0.00;;;29.70;99.90;;;;;;5067800;28;20199;-78
2022/08/13 08:45:24;;;;;;;0.00;0.00;;;29.70;99.90;;;;;;5065891;28;20654;-79
2022/08/13 08:47:52;;;;;;;0.00;0.00;;;;;;;;;;5062906;28;20203;-79
2022/08/13 08:50:22;;;;;;;0.00;0.00;;;;;;;;;;5059482;28;20282;-78
2022/08/13 08:55:38;;;;;;;0.00;0.00;;;29.90;99.90;;;;;;5061369;28;20696;-77
2022/08/13 08:58:06;;;;;;;0.00;0.00;;;30.00;99.90;;;;;;5063665;28;20283;-78
2022/08/13 09:00:39;;;;;;;0.00;0.00;;;29.80;99.90;;;;;;5064776;28;20203;-78
2022/08/13 09:03:07;;;;;;;0.00;0.00;;;29.70;99.90;;;;;;5067358;28;20205;-77
2022/08/13 09:05:35;;;;;;;0.00;0.00;;;29.60;99.90;;;;;;5058328;28;20287;-77
2022/08/13 09:08:06;;;;;;;0.00;0.00;;;29.60;99.90;;;;;;5067597;28;20199;-78
2022/08/13 09:10:36;;;;;;;0.00;0.00;;;29.60;99.90;;;;;;5059679;28;20214;-76
2022/08/13 09:13:04;;;;;;;0.00;0.00;;;29.50;99.90;;;;;;5066213;28;20205;-78
2022/08/13 09:15:34;;;;;;;0.00;0.00;;;;;;;;;;5059245;28;20218;-78
2022/08/13 09:18:02;;;;;;;0.00;0.00;;;;;;;;;;5058440;28;20202;-80
2022/08/13 09:20:33;;;;;;;0.00;0.00;;;;;;;;;;5057770;28;20214;-80
2022/08/13 09:23:03;;;;;;;0.00;0.00;;;;;;;;;;5052952;28;20199;-80
2022/08/13 09:25:32;;;;;;;0.00;0.00;;;;;;;;;;5055142;28;20264;-81
2022/08/13 09:27:59;;;;;;;0.00;0.00;;;;;;;;;;5060830;28;20244;-79
2022/08/13 09:30:28;;;;;;;0.00;0.00;;;;;;;;;;5062178;28;20218;-80
2022/08/13 09:32:57;;;;;;;0.00;0.00;;;;;;;;;;5055324;28;20209;-79
2022/08/13 09:35:26;;;;;;;0.00;0.00;;;;;;;;;;5058050;28;20200;-79
2022/08/13 09:37:56;;;;;;;0.00;0.00;;;;;;;;;;5062115;28;20203;-79
2022/08/13 09:40:25;;;;;;;0.00;0.00;;;;;;;;;;5058687;28;20483;-80
2022/08/13 09:42:57;;;;;;;0.00;0.00;;;;;;;;;;5058800;28;20199;-79
2022/08/13 09:45:25;;;;;;;0.00;0.00;;;;;;;;;;5062425;28;20203;-79
2022/08/13 09:47:54;;;;;;;0.00;0.00;;;;;;;;;;5057658;28;20761;-83
2022/08/13 09:50:23;;;;;;;0.00;0.00;;;;;;;;;;5063506;28;20227;-80
2022/08/13 09:52:51;;;;;;;0.00;0.00;;;;;;;;;;5066112;28;20198;-78
2022/08/13 09:55:18;;;;;;;0.00;0.00;;;;;;;;;;5066242;28;20281;-78
2022/08/13 09:57:49;;;;;;;0.00;0.00;;;;;;;;;;5066264;28;20220;-79
2022/08/13 10:00:20;;;;;;;0.00;0.00;;;;;;;;;;5069220;28;20625;-77
2022/08/13 10:02:50;;;;;;;0.00;0.00;;;;;;;;;;5067432;28;20226;-79
2022/08/13 10:05:19;;;;;;;0.00;0.00;;;;;;;;;;5063076;28;20198;-79
2022/08/13 10:07:47;;;;;;;0.00;0.00;;;;;;;;;;5065630;28;20236;-77
2022/08/13 10:10:15;;;;;;;0.00;0.00;;;;;;;;;;5067567;28;20202;-79
2022/08/13 10:12:42;;;;;;;0.00;0.00;;;;;;;;;;5065329;28;20218;-78
2022/08/13 10:15:12;;;;;;;0.00;0.00;;;;;;;;;;5066001;28;20233;-76
2022/08/13 10:17:49;;;;;;;0.00;0.00;;;;;;;;;;5070141;28;20229;-79
2022/08/13 10:20:18;;;;;;;0.00;0.00;;;;;;;;;;5085991;28;20195;-78
2022/08/13 10:22:46;;;;;;;0.00;0.00;;;;;;;;;;5068275;28;20329;-77
2022/08/13 10:25:14;;;;;;;0.00;0.00;;;28.30;99.90;;;;;;5067123;28;20194;-78
2022/08/13 10:27:41;;;;;;;0.00;0.00;;;28.30;99.90;;;;;;5072939;28;20202;-78
2022/08/13 10:30:10;;;;;;;0.00;0.00;;;28.20;99.90;;;;;;5074159;28;20202;-78
2022/08/13 10:32:37;;;;;;;0.00;0.00;;;28.10;99.90;;;;;;5067498;28;20246;-78
2022/08/13 10:35:05;;;;;;;0.00;0.00;;;28.00;99.90;;;;;;5069136;28;20209;-77
2022/08/13 10:37:33;;;;;;;0.00;0.00;;;27.90;99.90;;;;;;5068152;28;20685;-78
2022/08/13 10:40:02;;;;;;;0.00;0.00;;;27.80;99.90;;;;;;5064709;28;20244;-77
2022/08/13 10:42:31;;;;;;;0.00;0.00;;;27.80;99.90;;;;;;5068676;28;20222;-77
2022/08/13 10:44:58;;;;;;;0.00;0.00;;;27.60;99.90;;;;;;5067272;28;20645;-81
2022/08/13 10:47:25;;;;;;;0.00;0.00;;;27.60;99.90;;;;;;5066743;28;20229;-79
2022/08/13 10:49:53;;;;;;;0.00;0.00;;;27.40;99.90;;;;;;5074633;28;20194;-80
2022/08/13 10:52:20;;;;;;;0.00;0.00;;;27.40;99.90;;;;;;5068715;28;20237;-79
2022/08/13 10:54:49;;;;;;;0.00;0.00;;;27.30;99.90;;;;;;5071718;28;20199;-80
2022/08/13 10:57:17;;;;;;;0.00;0.00;;;27.20;99.90;;;;;;5067468;28;20222;-79
2022/08/13 10:59:45;;;;;;;0.00;0.00;;;27.30;99.90;;;;;;5068243;28;20288;-80
2022/08/13 11:02:13;;;;;;;0.00;0.00;;;27.20;99.90;;;;;;5065974;28;20309;-79
2022/08/13 11:04:41;;;;;;;0.00;0.00;;;27.20;99.90;;;;;;5065392;28;20203;-79
2022/08/13 11:07:10;;;;;;;0.00;0.00;;;27.30;99.90;;;;;;5063952;28;20194;-79
2022/08/13 11:09:38;;;;;;;0.00;0.00;;;27.20;99.90;;;;;;5063029;28;20208;-79
2022/08/13 11:12:07;;;;;;;0.00;0.00;;;27.20;99.90;;;;;;5062578;28;20772;-79
2022/08/13 11:14:36;;;;;;;0.00;0.00;;;27.20;99.90;;;;;;5067642;28;20206;-80
2022/08/13 11:17:07;;;;;;;0.00;0.00;;;;;;;;;;5066540;28;20214;-80
2022/08/13 11:19:34;;;;;;;0.00;0.00;;;;;;;;;;5064018;28;20199;-79
2022/08/13 11:22:01;;;;;;;0.00;0.00;;;;;;;;;;5065311;28;20720;-79
2022/08/13 11:24:29;;;;;;;0.00;0.00;;;;;;;;;;5064367;28;20217;-78
2022/08/13 11:26:56;;;;;;;0.00;0.00;;;27.10;99.90;;;;;;5062325;28;20191;-78
2022/08/13 11:29:23;;;;;;;0.00;0.00;;;27.20;99.90;;;;;;5062035;28;20207;-79
2022/08/13 11:31:52;;;;;;;0.00;0.00;;;27.20;99.90;;;;;;5062131;28;20272;-80
2022/08/13 11:34:19;;;;;;;0.00;0.00;;;27.30;99.90;;;;;;5058590;28;20226;-79
2022/08/13 11:36:49;;;;;;;0.00;0.00;;;27.20;99.90;;;;;;5063955;28;20218;-79
2022/08/13 11:39:16;;;;;;;0.00;0.00;;;27.20;99.90;;;;;;5062868;28;20207;-79
2022/08/13 11:41:45;;;;;;;0.00;0.00;;;27.20;99.90;;;;;;5060794;28;20222;-79
2022/08/13 11:44:13;;;;;;;0.00;0.00;;;27.20;99.90;;;;;;5065006;28;20210;-78
2022/08/13 11:46:40;;;;;;;0.00;0.00;;;27.20;99.90;;;;;;5059706;28;20188;-77
2022/08/13 11:49:15;;;;;;;0.00;0.00;;;27.10;99.90;;;;;;5064849;28;20202;-78
2022/08/13 11:51:44;;;;;;;0.00;0.00;;;;;;;;;;5062559;28;20221;-78
2022/08/13 11:54:12;;;;;;;0.00;0.00;;;27.10;99.90;;;;;;5061665;28;20219;-80
2022/08/13 11:56:39;;;;;;;0.00;0.00;;;27.20;99.90;;;;;;5064315;28;20214;-78
2022/08/13 11:59:06;;;;;;;0.00;0.00;;;27.40;99.90;;;;;;5063429;28;20279;-79
2022/08/13 12:01:33;;;;;;;0.00;0.00;;;27.40;99.90;;;;;;5060267;28;20219;-79
2022/08/13 12:04:00;;;;;;;0.00;0.00;;;27.50;99.90;;;;;;5061702;28;20286;-79
2022/08/13 12:06:29;;;;;;;0.00;0.00;;;27.60;99.90;;;;;;5056246;28;20199;-79
2022/08/13 12:08:56;;;;;;;0.00;0.00;;;27.60;99.90;;;;;;5061402;28;20234;-78
2022/08/13 12:11:23;;;;;;;0.00;0.00;;;27.70;99.90;;;;;;5079101;28;20226;-79
2022/08/13 12:13:51;;;;;;;0.00;0.00;;;27.80;99.90;;;;;;5073401;28;20240;-79
2022/08/13 12:16:18;;;;;;;0.00;0.00;;;27.90;99.90;;;;;;5067470;28;20290;-79
2022/08/13 12:18:44;;;;;;;0.00;0.00;;;28.10;99.90;;;;;;5069609;28;20198;-79
2022/08/13 12:21:11;;;;;;;0.00;0.00;;;28.10;99.90;;;;;;5070433;28;20234;-79
2022/08/13 12:23:39;;;;;;;0.00;0.00;;;28.20;99.90;;;;;;5068237;28;20195;-78
2022/08/13 12:26:07;;;;;;;0.00;0.00;;;28.10;99.90;;;;;;5067413;28;20230;-79
2022/08/13 12:28:34;;;;;;;0.00;0.00;;;28.20;99.90;;;;;;5068616;28;20257;-78
2022/08/13 12:31:04;;;;;;;0.00;0.00;;;28.20;99.90;;;;;;5067402;28;20222;-78
2022/08/13 12:33:32;;;;;;;0.00;0.00;;;28.30;99.90;;;;;;5061240;28;20195;-79
2022/08/13 12:36:00;;;;;;;0.00;0.00;;;28.30;99.90;;;;;;5066971;28;20203;-80
2022/08/13 12:38:28;;;;;;;0.00;0.00;;;28.40;99.90;;;;;;5065753;28;20218;-79
2022/08/13 12:40:58;;;;;;;0.00;0.00;;;28.50;99.90;;;;;;5066229;28;20223;-78
2022/08/13 12:43:25;;;;;;;0.00;0.00;;;28.50;99.90;;;;;;5066009;28;20198;-79
2022/08/13 12:45:51;;;;;;;0.00;0.00;;;28.60;99.90;;;;;;5066153;28;20202;-79
2022/08/13 12:48:19;;;;;;;0.00;0.00;;;28.40;99.90;;;;;;5067235;28;20194;-78
2022/08/13 12:50:48;;;;;;;0.00;0.00;;;28.40;99.90;;;;;;5071700;28;20230;-78
2022/08/13 12:53:16;;;;;;;0.00;0.00;;;28.30;99.90;;;;;;5064408;28;20450;-79
2022/08/13 12:55:45;;;;;;;0.00;0.00;;;28.30;99.90;;;;;;5066705;28;20202;-78
2022/08/13 12:58:18;;;;;;;0.00;0.00;;;28.20;99.90;;;;;;5063898;28;20226;-79
2022/08/13 13:00:47;;;;;;;0.00;0.00;;;28.10;99.90;;;;;;5057692;28;20257;-79
2022/08/13 13:03:15;;;;;;;0.00;0.00;;;28.00;99.90;;;;;;5063749;28;20281;-79
2022/08/13 13:05:44;;;;;;;0.00;0.00;;;28.10;99.90;;;;;;5065304;28;20211;-78
2022/08/13 13:08:19;;;;;;;0.00;0.00;;;28.10;99.90;;;;;;5062563;28;20216;-79
2022/08/13 13:10:47;;;;;;;0.00;0.00;;;28.10;99.90;;;;;;5066475;28;20240;-78
2022/08/13 13:13:17;;;;;;;0.00;0.00;;;28.20;99.90;;;;;;5067832;28;20201;-80
2022/08/13 13:15:45;;;;;;;0.00;0.00;;;28.20;99.90;;;;;;5065372;28;20203;-79
2022/08/13 13:18:14;;;;;;;0.00;0.00;;;28.10;99.90;;;;;;5066783;28;20273;-79
2022/08/13 13:20:43;;;;;;;0.00;0.00;;;28.20;99.90;;;;;;5065218;28;20199;-78
2022/08/13 13:23:12;;;;;;;0.00;0.00;;;28.20;99.90;;;;;;5063405;28;20222;-81
2022/08/13 13:25:42;;;;;;;0.00;0.00;;;28.40;99.90;;;;;;5062948;28;20225;-79
2022/08/13 13:28:10;;;;;;;0.00;0.00;;;28.40;99.90;;;;;;5062626;28;20199;-79
2022/08/13 13:30:39;;;;;;;0.00;0.00;;;28.40;99.90;;;;;;5057698;28;20202;-79
2022/08/13 13:33:07;;;;;;;0.00;0.00;;;28.50;99.90;;;;;;5062799;28;20229;-79
2022/08/13 13:35:34;;;;;;;0.00;0.00;;;28.50;99.90;;;;;;5060111;28;20204;-79
2022/08/13 13:38:02;;;;;;;0.00;0.00;;;28.40;99.90;;;;;;5057050;28;20229;-78
2022/08/13 13:40:29;;;;;;;0.00;0.00;;;28.40;99.90;;;;;;5080264;28;20251;-82
2022/08/13 13:42:57;;;;;;;0.00;0.00;;;28.50;99.90;;;;;;5062729;28;20203;-78
2022/08/13 13:45:24;;;;;;;0.00;0.00;;;28.50;99.90;;;;;;5058884;28;20281;-77
2022/08/13 13:47:52;;;;;;;0.00;0.00;;;28.50;99.90;;;;;;5063483;28;20201;-78